createdAt,value
2018-11-12T00:01:08.233Z,2.90
2018-11-12T00:03:36.782Z,8.67
2018-11-12T00:06:05.521Z,1.87
2018-11-12T00:08:33.916Z,4.90
2018-11-12T00:11:02.281Z,5.13
2018-11-12T00:13:30.684Z,2.27
2018-11-12T00:15:59.066Z,2.40
2018-11-12T00:18:27.468Z,2.33
2018-11-12T00:20:55.872Z,1.80
2018-11-12T00:23:24.264Z,4.23
2018-11-12T00:25:52.690Z,3.37
2018-11-12T00:28:21.088Z,3.10
2018-11-12T00:30:49.472Z,1.97
2018-11-12T00:33:17.874Z,1.60
2018-11-12T00:35:46.244Z,2.87
2018-11-12T00:38:14.644Z,4.10
2018-11-12T00:40:43.028Z,2.53
2018-11-12T00:43:11.419Z,5.23
2018-11-12T00:45:39.792Z,2.60
2018-11-12T00:48:08.196Z,4.53
2018-11-12T00:50:36.563Z,4.87
2018-11-12T00:53:05.077Z,3.90
2018-11-12T00:55:33.476Z,2.57
2018-11-12T00:58:01.904Z,5.60
2018-11-12T01:00:31.357Z,2.40
2018-11-12T01:02:59.760Z,5.30
2018-11-12T01:05:28.201Z,3.43
2018-11-12T01:07:56.622Z,2.43
2018-11-12T01:10:25.060Z,5.60
2018-11-12T01:12:53.485Z,3.67
2018-11-12T01:15:21.930Z,6.20
2018-11-12T01:17:50.341Z,3.67
2018-11-12T01:20:18.819Z,5.70
2018-11-12T01:22:47.617Z,1.90
2018-11-12T01:25:16.172Z,3.73
2018-11-12T01:27:44.972Z,3.10
2018-11-12T01:30:17.536Z,5.30
2018-11-12T01:32:46.233Z,3.63
2018-11-12T01:35:15.651Z,2.87
2018-11-12T01:37:44.187Z,2.13
2018-11-12T01:40:13.414Z,3.73
2018-11-12T01:42:42.172Z,2.20
2018-11-12T01:45:12.824Z,3.50
2018-11-12T01:47:41.644Z,2.97
2018-11-12T01:50:11.220Z,2.60
2018-11-12T01:52:39.657Z,3.30
2018-11-12T01:55:09.517Z,8.33
2018-11-12T01:57:37.932Z,4.07
2018-11-12T02:00:09.129Z,2.73
2018-11-12T02:02:37.524Z,3.33
2018-11-12T02:05:06.389Z,2.87
2018-11-12T02:07:34.799Z,6.97
2018-11-12T02:10:03.340Z,2.67
2018-11-12T02:12:31.756Z,2.93
2018-11-12T02:15:00.153Z,1.90
2018-11-12T02:17:28.585Z,1.77
2018-11-12T02:19:56.994Z,7.40
2018-11-12T02:22:25.439Z,2.50
2018-11-12T02:24:53.851Z,5.93
2018-11-12T02:27:22.280Z,3.20
2018-11-12T02:29:50.688Z,3.67
2018-11-12T02:32:19.112Z,3.77
2018-11-12T02:34:47.554Z,2.70
2018-11-12T02:37:16.037Z,3.03
2018-11-12T02:39:44.444Z,2.40
2018-11-12T02:42:12.888Z,3.40
2018-11-12T02:44:41.301Z,4.50
2018-11-12T02:47:09.764Z,3.33
2018-11-12T02:49:38.172Z,2.40
2018-11-12T02:52:06.609Z,3.30
2018-11-12T02:54:34.988Z,3.00
2018-11-12T02:57:03.388Z,3.03
2018-11-12T02:59:31.796Z,2.97
2018-11-12T03:02:00.188Z,3.10
2018-11-12T03:04:28.559Z,3.20
2018-11-12T03:06:56.968Z,4.17
2018-11-12T03:09:25.360Z,2.90
2018-11-12T03:11:53.736Z,2.97
2018-11-12T03:14:22.123Z,4.10
2018-11-12T03:16:50.501Z,4.47
2018-11-12T03:19:18.885Z,2.43
2018-11-12T03:21:47.269Z,2.67
2018-11-12T03:24:15.660Z,1.70
2018-11-12T03:26:44.041Z,2.90
2018-11-12T03:29:12.500Z,3.20
2018-11-12T03:31:40.881Z,2.50
2018-11-12T03:34:09.285Z,4.50
2018-11-12T03:36:37.667Z,9.50
2018-11-12T03:39:08.068Z,6.63
2018-11-12T03:41:36.461Z,2.60
2018-11-12T03:44:04.852Z,4.30
2018-11-12T03:46:33.230Z,3.80
2018-11-12T03:49:01.614Z,3.40
2018-11-12T03:51:30.060Z,2.93
2018-11-12T03:53:58.512Z,2.80
2018-11-12T03:56:26.949Z,3.10
2018-11-12T03:58:55.372Z,2.40
2018-11-12T04:01:27.992Z,5.53
2018-11-12T04:03:56.416Z,4.20
2018-11-12T04:06:25.551Z,1.90
2018-11-12T04:08:53.983Z,3.83
2018-11-12T04:11:22.377Z,4.23
2018-11-12T04:13:50.727Z,2.73
2018-11-12T04:16:19.101Z,7.70
2018-11-12T04:18:47.490Z,9.97
2018-11-12T04:21:15.864Z,11.67
2018-11-12T04:23:44.213Z,3.87
2018-11-12T04:26:12.586Z,3.60
2018-11-12T04:28:40.945Z,4.90
2018-11-12T04:31:09.328Z,8.80
2018-11-12T04:33:37.683Z,5.67
2018-11-12T04:36:06.281Z,8.13
2018-11-12T04:38:34.635Z,3.60
2018-11-12T04:41:03.022Z,4.47
2018-11-12T04:43:31.447Z,3.77
2018-11-12T04:45:59.827Z,9.27
2018-11-12T04:48:28.196Z,13.33
2018-11-12T04:50:56.627Z,5.00
2018-11-12T04:53:25.069Z,6.47
2018-11-12T04:55:53.420Z,6.20
2018-11-12T04:58:21.785Z,4.40
2018-11-12T05:00:50.255Z,6.43
2018-11-12T05:03:18.625Z,5.67
2018-11-12T05:05:47.012Z,8.40
2018-11-12T05:08:15.447Z,12.93
2018-11-12T05:10:43.885Z,8.80
2018-11-12T05:13:12.260Z,7.30
2018-11-12T05:15:40.620Z,8.07
2018-11-12T05:18:09.034Z,8.23
2018-11-12T05:20:37.389Z,8.50
2018-11-12T05:23:05.857Z,10.77
2018-11-12T05:25:34.223Z,9.10
2018-11-12T05:28:02.609Z,7.90
2018-11-12T05:30:30.981Z,9.93
2018-11-12T05:32:59.564Z,6.33
2018-11-12T05:35:29.156Z,9.73
2018-11-12T05:37:57.824Z,8.07
2018-11-12T05:40:27.359Z,7.37
2018-11-12T05:42:55.792Z,6.30
2018-11-12T05:45:25.439Z,6.20
2018-11-12T05:47:53.944Z,7.33
2018-11-12T05:50:25.584Z,5.30
2018-11-12T05:52:55.359Z,5.43
2018-11-12T05:55:25.035Z,9.80
2018-11-12T05:57:53.471Z,6.27
2018-11-12T06:00:29.451Z,6.40
2018-11-12T06:02:57.912Z,7.90
2018-11-12T06:05:26.275Z,6.23
2018-11-12T06:07:54.674Z,6.43
2018-11-12T06:10:24.375Z,7.33
2018-11-12T06:12:52.883Z,4.70
2018-11-12T06:15:21.264Z,5.37
2018-11-12T06:17:50.601Z,5.03
2018-11-12T06:20:22.754Z,5.50
2018-11-12T06:22:51.359Z,4.80
2018-11-12T06:25:21.940Z,9.10
2018-11-12T06:27:50.844Z,4.53
2018-11-12T06:30:20.628Z,7.53
2018-11-12T06:32:49.004Z,7.40
2018-11-12T06:35:17.800Z,8.53
2018-11-12T06:37:46.993Z,4.70
2018-11-12T06:40:17.667Z,6.90
2018-11-12T06:42:46.188Z,10.73
2018-11-12T06:45:16.667Z,8.00
2018-11-12T06:47:45.941Z,11.03
2018-11-12T06:50:16.703Z,8.30
2018-11-12T06:52:45.144Z,12.63
2018-11-12T06:55:14.375Z,15.60
2018-11-12T06:57:43.068Z,25.87
2018-11-12T07:00:16.152Z,18.70
2018-11-12T07:02:44.542Z,16.93
2018-11-12T07:05:13.324Z,12.47
2018-11-12T07:07:41.732Z,14.70
2018-11-12T07:10:12.314Z,12.90
2018-11-12T07:12:41.708Z,11.10
2018-11-12T07:15:11.742Z,12.63
2018-11-12T07:17:40.323Z,15.00
2018-11-12T07:20:11.103Z,11.03
2018-11-12T07:22:39.524Z,12.47
2018-11-12T07:25:08.810Z,9.87
2018-11-12T07:27:37.315Z,6.80
2018-11-12T07:30:12.679Z,10.57
2018-11-12T07:32:41.080Z,9.40
2018-11-12T07:35:11.065Z,15.23
2018-11-12T07:37:39.452Z,13.27
2018-11-12T07:40:08.792Z,7.63
2018-11-12T07:42:37.712Z,8.57
2018-11-12T07:45:07.684Z,8.40
2018-11-12T07:47:36.108Z,8.07
2018-11-12T07:50:06.523Z,7.60
2018-11-12T07:52:35.084Z,7.23
2018-11-12T07:55:03.506Z,5.20
2018-11-12T07:57:32.047Z,7.47
2018-11-12T08:00:00.432Z,4.23
2018-11-12T08:02:28.817Z,5.83
2018-11-12T08:04:57.301Z,8.30
2018-11-12T08:07:25.680Z,7.13
2018-11-12T08:09:54.049Z,6.17
2018-11-12T08:12:22.613Z,3.57
2018-11-12T08:14:51.020Z,6.30
2018-11-12T08:17:19.433Z,6.30
2018-11-12T08:19:47.780Z,6.60
2018-11-12T08:22:16.160Z,5.50
2018-11-12T08:24:44.592Z,5.67
2018-11-12T08:27:12.945Z,3.80
2018-11-12T08:29:41.393Z,4.90
2018-11-12T08:32:09.742Z,4.90
2018-11-12T08:34:38.129Z,5.20
2018-11-12T08:37:06.924Z,6.57
2018-11-12T08:39:35.440Z,5.03
2018-11-12T08:42:03.793Z,4.30
2018-11-12T08:44:32.160Z,10.10
2018-11-12T08:47:00.608Z,3.80
2018-11-12T08:49:29.042Z,5.60
2018-11-12T08:51:57.409Z,3.20
2018-11-12T08:54:25.852Z,3.10
2018-11-12T08:56:54.240Z,6.63
2018-11-12T08:59:22.805Z,7.80
2018-11-12T09:01:51.045Z,4.90
2018-11-12T09:04:19.424Z,4.80
2018-11-12T09:06:47.812Z,6.17
2018-11-12T09:09:16.238Z,4.47
2018-11-12T09:11:44.592Z,3.30
2018-11-12T09:14:12.976Z,9.63
2018-11-12T09:16:41.341Z,7.00
2018-11-12T09:19:09.731Z,4.40
2018-11-12T09:21:38.104Z,3.83
2018-11-12T09:24:06.537Z,8.10
2018-11-12T09:26:34.947Z,7.00
2018-11-12T09:29:03.372Z,6.87
2018-11-12T09:31:31.959Z,6.23
2018-11-12T09:34:00.186Z,4.40
2018-11-12T09:36:28.608Z,7.00
2018-11-12T09:41:25.557Z,7.93
2018-11-12T09:43:53.887Z,9.70
2018-11-12T09:46:22.269Z,12.17
2018-11-12T09:48:50.732Z,7.63
2018-11-12T09:51:19.477Z,6.47
2018-11-12T09:53:47.989Z,6.90
2018-11-12T09:56:16.249Z,7.60
2018-11-12T09:58:44.640Z,7.37
2018-11-12T10:01:13.211Z,9.63
2018-11-12T10:03:42.617Z,10.50
2018-11-12T10:06:11.356Z,9.63
2018-11-12T10:08:40.798Z,7.43
2018-11-12T10:11:11.320Z,10.60
2018-11-12T10:13:39.168Z,12.40
2018-11-12T10:16:09.021Z,7.13
2018-11-12T10:18:33.617Z,14.43
2018-11-12T10:21:02.064Z,8.00
2018-11-12T10:23:30.436Z,7.90
2018-11-12T10:25:58.824Z,10.07
2018-11-12T10:28:27.204Z,10.33
2018-11-12T10:30:55.617Z,12.70
2018-11-12T10:33:24.380Z,9.83
2018-11-12T10:35:52.755Z,10.90
2018-11-12T10:38:21.126Z,10.73
2018-11-12T10:40:49.562Z,15.53
2018-11-12T10:43:17.904Z,10.90
2018-11-12T10:45:46.292Z,11.93
2018-11-12T10:48:14.704Z,9.23
2018-11-12T10:50:43.064Z,10.17
2018-11-12T10:53:11.467Z,8.80
2018-11-12T10:55:39.945Z,7.77
2018-11-12T10:58:08.256Z,10.57
2018-11-12T11:00:42.066Z,8.23
2018-11-12T11:03:17.033Z,9.40
2018-11-12T11:05:46.651Z,15.87
2018-11-12T11:08:15.069Z,13.37
2018-11-12T11:10:43.432Z,9.53
2018-11-12T11:13:12.189Z,10.77
2018-11-12T11:15:40.932Z,10.47
2018-11-12T11:18:09.299Z,10.43
2018-11-12T11:20:37.672Z,13.07
2018-11-12T11:23:06.068Z,9.30
2018-11-12T11:25:34.616Z,9.70
2018-11-12T11:28:02.984Z,8.90
2018-11-12T11:30:31.356Z,12.43
2018-11-12T11:32:59.744Z,12.43
2018-11-12T11:35:28.125Z,13.70
2018-11-12T11:37:56.603Z,10.10
2018-11-12T11:40:26.294Z,7.67
2018-11-12T11:42:54.599Z,9.67
2018-11-12T11:45:23.244Z,7.03
2018-11-12T11:47:52.621Z,6.80
2018-11-12T11:50:22.263Z,8.50
2018-11-12T11:52:50.603Z,5.80
2018-11-12T11:55:21.263Z,9.53
2018-11-12T11:57:49.960Z,7.30
2018-11-12T12:00:20.727Z,6.00
2018-11-12T12:02:50.362Z,6.20
2018-11-12T12:05:19.492Z,5.30
2018-11-12T12:07:48.406Z,7.40
2018-11-12T12:10:17.192Z,5.30
2018-11-12T12:12:46.375Z,7.97
2018-11-12T12:15:15.996Z,9.30
2018-11-12T12:17:44.375Z,11.97
2018-11-12T12:20:16.441Z,12.23
2018-11-12T12:22:44.832Z,12.43
2018-11-12T12:25:14.649Z,11.33
2018-11-12T12:27:43.307Z,7.33
2018-11-12T12:30:15.205Z,7.40
2018-11-12T12:32:44.484Z,8.20
2018-11-12T12:35:13.365Z,6.93
2018-11-12T12:37:42.532Z,9.20
2018-11-12T12:40:12.376Z,4.93
2018-11-12T12:42:41.048Z,9.07
2018-11-12T12:45:11.132Z,9.83
2018-11-12T12:47:39.644Z,8.93
2018-11-12T12:50:09.354Z,8.50
2018-11-12T12:52:37.948Z,10.27
2018-11-12T12:55:06.952Z,14.80
2018-11-12T12:57:35.471Z,7.70
2018-11-12T13:00:04.668Z,9.43
2018-11-12T13:02:33.051Z,7.37
2018-11-12T13:05:01.577Z,7.80
2018-11-12T13:07:30.006Z,5.07
2018-11-12T13:09:58.328Z,10.90
2018-11-12T13:12:26.820Z,6.53
2018-11-12T13:14:55.408Z,8.77
2018-11-12T13:17:23.985Z,4.90
2018-11-12T13:19:52.465Z,7.10
2018-11-12T13:22:20.743Z,8.13
2018-11-12T13:24:49.108Z,8.50
2018-11-12T13:27:17.508Z,8.17
2018-11-12T13:29:45.940Z,14.33
2018-11-12T13:32:14.301Z,19.87
2018-11-12T13:34:42.699Z,24.40
2018-11-12T13:37:11.084Z,29.70
2018-11-12T13:39:39.475Z,26.57
2018-11-12T13:42:07.884Z,26.77
2018-11-12T13:44:36.264Z,19.60
2018-11-12T13:47:04.832Z,17.83
2018-11-12T13:49:33.201Z,15.40
2018-11-12T13:52:01.615Z,13.00
2018-11-12T13:54:30.036Z,11.20
2018-11-12T13:56:58.418Z,12.43
2018-11-12T13:59:26.807Z,12.43
2018-11-12T14:01:55.219Z,15.40
2018-11-12T14:04:23.588Z,8.50
2018-11-12T14:06:51.978Z,9.23
2018-11-12T14:09:26.053Z,9.60
2018-11-12T14:11:54.448Z,8.90
2018-11-12T14:14:22.824Z,9.73
2018-11-12T14:16:51.244Z,10.20
2018-11-12T14:19:19.605Z,9.97
2018-11-12T14:21:47.996Z,11.67
2018-11-12T14:24:16.377Z,11.10
2018-11-12T14:26:44.754Z,9.60
2018-11-12T14:29:13.157Z,10.60
2018-11-12T14:31:41.529Z,10.73
2018-11-12T14:34:09.921Z,11.00
2018-11-12T14:36:38.309Z,9.70
2018-11-12T14:39:09.274Z,10.00
2018-11-12T14:41:37.688Z,11.67
2018-11-12T14:44:06.173Z,10.73
2018-11-12T14:46:34.545Z,10.63
2018-11-12T14:49:02.970Z,11.70
2018-11-12T14:51:31.445Z,12.63
2018-11-12T14:53:59.835Z,10.07
2018-11-12T14:56:28.252Z,8.87
2018-11-12T14:58:56.693Z,15.20
2018-11-12T15:01:25.061Z,12.07
2018-11-12T15:03:53.469Z,9.20
2018-11-12T15:06:21.840Z,12.90
2018-11-12T15:08:50.293Z,10.97
2018-11-12T15:11:18.624Z,14.17
2018-11-12T15:13:47.013Z,12.97
2018-11-12T15:16:15.393Z,11.57
2018-11-12T15:18:43.800Z,11.70
2018-11-12T15:21:12.198Z,14.53
2018-11-12T15:23:40.585Z,12.43
2018-11-12T15:26:09.006Z,10.43
2018-11-12T15:28:37.447Z,12.87
2018-11-12T15:31:05.888Z,12.30
2018-11-12T15:33:34.321Z,10.60
2018-11-12T15:36:02.745Z,12.87
2018-11-12T15:38:31.145Z,10.80
2018-11-12T15:40:59.528Z,12.03
2018-11-12T15:43:27.916Z,10.83
2018-11-12T15:45:56.301Z,14.73
2018-11-12T15:48:24.669Z,11.43
2018-11-12T15:50:53.109Z,10.30
2018-11-12T15:53:21.504Z,9.77
2018-11-12T15:55:50.641Z,11.90
2018-11-12T15:58:19.136Z,10.67
2018-11-12T16:00:47.436Z,10.27
2018-11-12T16:03:15.852Z,11.57
2018-11-12T16:05:44.270Z,12.87
2018-11-12T16:08:12.631Z,11.03
2018-11-12T16:10:41.012Z,11.73
2018-11-12T16:13:09.444Z,10.90
2018-11-12T16:15:37.825Z,12.00
2018-11-12T16:18:06.267Z,14.33
2018-11-12T16:20:34.661Z,11.23
2018-11-12T16:23:03.125Z,17.03
2018-11-12T16:25:31.720Z,12.90
2018-11-12T16:28:00.040Z,12.27
2018-11-12T16:30:28.400Z,15.53
2018-11-12T16:32:56.833Z,14.83
2018-11-12T16:35:25.590Z,14.60
2018-11-12T16:37:54.892Z,15.23
2018-11-12T16:40:23.372Z,14.57
2018-11-12T16:42:51.686Z,18.03
2018-11-12T16:45:20.064Z,17.43
2018-11-12T16:47:48.524Z,20.00
2018-11-12T16:50:17.385Z,19.53
2018-11-12T16:52:45.817Z,20.93
2018-11-12T16:55:17.236Z,20.63
2018-11-12T16:57:45.775Z,17.37
2018-11-12T17:00:15.197Z,20.00
2018-11-12T17:02:44.010Z,21.83
2018-11-12T17:05:13.700Z,18.23
2018-11-12T17:07:42.137Z,22.07
2018-11-12T17:10:12.516Z,24.50
2018-11-12T17:12:41.932Z,20.73
2018-11-12T17:15:11.213Z,23.07
2018-11-12T17:17:39.733Z,22.93
2018-11-12T17:20:08.801Z,22.93
2018-11-12T17:22:37.596Z,20.83
2018-11-12T17:25:07.221Z,21.47
2018-11-12T17:27:35.540Z,22.00
2018-11-12T17:30:04.164Z,25.97
2018-11-12T17:32:32.629Z,24.87
2018-11-12T17:35:01.052Z,25.10
2018-11-12T17:37:29.521Z,25.80
2018-11-12T17:39:57.887Z,28.23
2018-11-12T17:42:26.260Z,29.37
2018-11-12T17:44:54.696Z,24.27
2018-11-12T17:47:23.082Z,25.93
2018-11-12T17:49:51.523Z,24.90
2018-11-12T17:52:19.910Z,29.27
2018-11-12T17:54:48.287Z,24.93
2018-11-12T17:57:16.660Z,24.17
2018-11-12T17:59:45.049Z,26.23
2018-11-12T18:02:13.440Z,24.90
2018-11-12T18:04:41.891Z,25.27
2018-11-12T18:07:10.361Z,26.47
2018-11-12T18:09:38.695Z,30.87
2018-11-12T18:12:07.616Z,25.27
2018-11-12T18:14:36.035Z,33.80
2018-11-12T18:17:04.520Z,26.77
2018-11-12T18:19:32.916Z,30.93
2018-11-12T18:22:01.325Z,29.43
2018-11-12T18:24:29.716Z,31.47
2018-11-12T18:26:58.112Z,32.27
2018-11-12T18:29:26.497Z,33.70
2018-11-12T18:31:55.002Z,30.70
2018-11-12T18:34:23.297Z,32.80
2018-11-12T18:36:51.672Z,34.83
2018-11-12T18:39:20.075Z,41.57
2018-11-12T18:41:48.456Z,36.73
2018-11-12T18:44:16.816Z,34.13
2018-11-12T18:46:45.232Z,36.50
2018-11-12T18:49:13.780Z,35.37
2018-11-12T18:51:42.184Z,31.60
2018-11-12T18:54:10.774Z,35.47
2018-11-12T18:56:39.192Z,33.67
2018-11-12T18:59:07.610Z,37.70
2018-11-12T19:01:42.464Z,33.00
2018-11-12T19:04:10.824Z,31.83
2018-11-12T19:06:39.231Z,29.00
2018-11-12T19:09:08.752Z,31.57
2018-11-12T19:11:37.216Z,38.03
2018-11-12T19:14:05.794Z,32.70
2018-11-12T19:16:34.303Z,30.10
2018-11-12T19:19:02.680Z,33.87
2018-11-12T19:21:31.113Z,30.20
2018-11-12T19:23:59.517Z,31.03
2018-11-12T19:26:27.948Z,30.23
2018-11-12T19:28:56.316Z,31.10
2018-11-12T19:31:24.704Z,33.23
2018-11-12T19:33:53.092Z,31.40
2018-11-12T19:36:21.540Z,34.17
2018-11-12T19:38:49.928Z,35.00
2018-11-12T19:41:18.313Z,30.10
2018-11-12T19:43:46.720Z,30.30
2018-11-12T19:46:15.093Z,27.83
2018-11-12T19:48:43.487Z,31.50
2018-11-12T19:51:11.871Z,36.77
2018-11-12T19:53:40.329Z,30.60
2018-11-12T19:56:08.708Z,31.40
2018-11-12T19:58:37.092Z,33.70
2018-11-12T20:01:05.703Z,29.87
2018-11-12T20:03:34.092Z,35.53
2018-11-12T20:06:03.300Z,36.97
2018-11-12T20:08:31.681Z,31.83
2018-11-12T20:11:00.083Z,30.40
2018-11-12T20:13:28.748Z,24.97
2018-11-12T20:15:57.165Z,26.60
2018-11-12T20:18:25.555Z,25.33
2018-11-12T20:20:53.943Z,22.60
2018-11-12T20:23:22.352Z,21.43
2018-11-12T20:25:50.777Z,23.47
2018-11-12T20:28:19.161Z,23.40
2018-11-12T20:30:47.541Z,20.57
2018-11-12T20:33:15.934Z,21.20
2018-11-12T20:35:44.302Z,24.10
2018-11-12T20:38:12.733Z,23.00
2018-11-12T20:40:41.153Z,22.07
2018-11-12T20:43:09.553Z,21.13
2018-11-12T20:45:37.936Z,22.27
2018-11-12T20:48:06.439Z,22.30
2018-11-12T20:50:34.773Z,25.60
2018-11-12T20:53:03.196Z,24.03
2018-11-12T20:55:31.601Z,23.30
2018-11-12T20:57:59.992Z,25.67
2018-11-12T21:00:28.856Z,26.67
2018-11-12T21:02:57.462Z,27.30
2018-11-12T21:05:27.153Z,26.93
2018-11-12T21:07:55.549Z,25.17
2018-11-12T21:10:23.948Z,24.60
2018-11-12T21:12:52.689Z,25.13
2018-11-12T21:15:22.096Z,25.90
2018-11-12T21:17:50.847Z,28.20
2018-11-12T21:20:20.601Z,29.17
2018-11-12T21:22:49.048Z,32.03
2018-11-12T21:25:18.788Z,29.60
2018-11-12T21:27:47.185Z,35.33
2018-11-12T21:30:19.515Z,28.77
2018-11-12T21:32:48.047Z,32.17
2018-11-12T21:35:16.436Z,27.90
2018-11-12T21:37:45.070Z,30.30
2018-11-12T21:40:15.603Z,36.87
2018-11-12T21:42:44.012Z,35.00
2018-11-12T21:45:13.807Z,34.00
2018-11-12T21:47:42.862Z,32.20
2018-11-12T21:50:13.339Z,32.80
2018-11-12T21:52:41.658Z,34.17
2018-11-12T21:55:10.927Z,39.47
2018-11-12T21:57:39.900Z,37.30
2018-11-12T22:00:14.704Z,40.80
2018-11-12T22:02:43.578Z,35.37
2018-11-12T22:05:12.130Z,36.17
2018-11-12T22:07:40.544Z,41.10
2018-11-12T22:10:10.996Z,37.80
2018-11-12T22:12:39.708Z,37.13
2018-11-12T22:15:08.724Z,37.30
2018-11-12T22:17:37.222Z,41.40
2018-11-12T22:20:06.959Z,34.33
2018-11-12T22:22:35.366Z,41.17
2018-11-12T22:25:03.840Z,39.23
2018-11-12T22:27:32.234Z,44.60
2018-11-12T22:30:00.652Z,43.17
2018-11-12T22:32:29.029Z,37.00
2018-11-12T22:34:57.412Z,35.43
2018-11-12T22:37:25.961Z,38.40
2018-11-12T22:39:54.335Z,43.80
2018-11-12T22:42:22.716Z,38.83
2018-11-12T22:44:51.371Z,35.67
2018-11-12T22:47:19.743Z,39.00
2018-11-12T22:49:48.135Z,37.37
2018-11-12T22:52:16.654Z,41.67
2018-11-12T22:54:45.056Z,34.53
2018-11-12T22:57:13.447Z,35.70
2018-11-12T22:59:41.953Z,42.60
2018-11-12T23:02:10.291Z,40.43
2018-11-12T23:04:38.700Z,42.10
2018-11-12T23:07:07.105Z,39.57
2018-11-12T23:09:35.649Z,36.30
2018-11-12T23:12:04.097Z,36.93
2018-11-12T23:14:32.520Z,40.63
2018-11-12T23:17:00.948Z,36.30
2018-11-12T23:19:29.334Z,40.47
2018-11-12T23:21:57.718Z,36.00
2018-11-12T23:24:26.099Z,36.80
2018-11-12T23:26:54.488Z,37.07
2018-11-12T23:29:22.885Z,39.23
2018-11-12T23:31:51.271Z,41.27
2018-11-12T23:34:19.647Z,38.37
2018-11-12T23:36:48.024Z,37.80
2018-11-12T23:39:16.419Z,41.83
2018-11-12T23:41:44.792Z,37.63
2018-11-12T23:44:13.190Z,43.30
2018-11-12T23:46:41.566Z,40.50
2018-11-12T23:49:09.960Z,41.63
2018-11-12T23:51:38.339Z,38.63
2018-11-12T23:54:06.744Z,40.23
2018-11-12T23:56:35.112Z,40.83
2018-11-12T23:59:03.582Z,39.23
